createdAt,value
2022-12-08T00:02:02.097Z,3.90
2022-12-08T00:04:29.078Z,3.90
2022-12-08T00:07:14.344Z,3.90
2022-12-08T00:09:41.450Z,3.90
2022-12-08T00:12:11.870Z,3.80
2022-12-08T00:14:38.409Z,3.80
2022-12-08T00:17:06.439Z,3.80
2022-12-08T00:19:33.395Z,3.70
2022-12-08T00:22:00.014Z,3.70
2022-12-08T00:24:31.400Z,3.70
2022-12-08T00:26:57.907Z,3.70
2022-12-08T00:29:24.449Z,3.70
2022-12-08T00:31:51.050Z,3.70
2022-12-08T00:34:17.797Z,3.70
2022-12-08T00:36:44.392Z,3.70
2022-12-08T00:39:11.433Z,3.80
2022-12-08T00:41:56.497Z,3.70
2022-12-08T00:44:23.200Z,3.70
2022-12-08T00:46:49.746Z,3.70
2022-12-08T00:49:16.801Z,3.70
2022-12-08T00:51:43.479Z,3.70
2022-12-08T00:54:10.368Z,3.70
2022-12-08T00:56:37.226Z,3.70
2022-12-08T00:59:04.511Z,3.70
2022-12-08T01:01:31.239Z,3.70
2022-12-08T01:03:58.062Z,3.70
2022-12-08T01:06:24.606Z,3.70
2022-12-08T01:08:51.217Z,3.60
2022-12-08T01:11:18.829Z,3.60
2022-12-08T01:13:45.486Z,3.60
2022-12-08T01:16:22.263Z,3.50
2022-12-08T01:18:48.908Z,3.50
2022-12-08T01:21:15.704Z,3.40
2022-12-08T01:23:42.321Z,3.40
2022-12-08T01:26:10.422Z,3.40
2022-12-08T01:28:37.325Z,3.40
2022-12-08T01:31:03.976Z,3.40
2022-12-08T01:33:31.704Z,3.40
2022-12-08T01:36:02.711Z,3.30
2022-12-08T01:38:29.207Z,3.30
2022-12-08T01:40:55.804Z,3.30
2022-12-08T01:43:22.443Z,3.20
2022-12-08T01:45:49.028Z,3.20
2022-12-08T01:48:23.588Z,3.30
2022-12-08T01:50:51.255Z,3.20
2022-12-08T01:53:19.804Z,3.10
2022-12-08T01:56:18.947Z,3.10
2022-12-08T01:58:47.667Z,3.10
2022-12-08T02:01:14.207Z,3.10
2022-12-08T02:03:42.255Z,3.00
2022-12-08T02:06:09.953Z,2.90
2022-12-08T02:08:38.711Z,2.90
2022-12-08T02:11:06.012Z,2.90
2022-12-08T02:13:32.734Z,2.80
2022-12-08T02:16:11.469Z,2.80
2022-12-08T02:19:29.648Z,2.80
2022-12-08T02:21:58.351Z,2.70
2022-12-08T02:24:32.912Z,2.70
2022-12-08T02:27:08.657Z,2.70
2022-12-08T02:29:44.310Z,2.60
2022-12-08T02:32:29.000Z,2.50
2022-12-08T02:35:05.237Z,2.50
2022-12-08T02:37:35.014Z,2.60
2022-12-08T02:40:20.614Z,2.60
2022-12-08T02:42:50.944Z,2.50
2022-12-08T02:45:22.535Z,2.50
2022-12-08T02:47:49.618Z,2.50
2022-12-08T02:50:16.317Z,2.50
2022-12-08T02:52:46.814Z,2.50
2022-12-08T02:55:17.241Z,2.40
2022-12-08T02:57:58.823Z,2.40
2022-12-08T03:00:25.741Z,2.40
2022-12-08T03:02:52.281Z,2.30
2022-12-08T03:05:18.935Z,2.20
2022-12-08T03:08:04.579Z,2.20
2022-12-08T03:10:46.638Z,2.20
2022-12-08T03:13:14.632Z,1.60
2022-12-08T03:15:42.593Z,2.20
2022-12-08T03:18:10.987Z,2.20
2022-12-08T03:20:38.345Z,2.10
2022-12-08T03:23:05.871Z,2.20
2022-12-08T03:25:36.644Z,2.10
2022-12-08T03:28:03.872Z,2.10
2022-12-08T03:30:31.937Z,2.00
2022-12-08T03:33:14.230Z,2.00
2022-12-08T03:35:41.429Z,2.00
2022-12-08T03:38:10.619Z,2.00
2022-12-08T03:40:37.849Z,2.00
2022-12-08T03:43:04.379Z,2.00
2022-12-08T03:45:30.949Z,2.00
2022-12-08T03:47:57.542Z,2.00
2022-12-08T03:50:24.393Z,2.00
2022-12-08T03:52:51.148Z,2.00
2022-12-08T03:55:18.039Z,2.00
2022-12-08T03:57:44.670Z,1.90
2022-12-08T04:00:13.902Z,2.00
2022-12-08T04:02:40.486Z,1.90
2022-12-08T04:05:07.230Z,1.90
2022-12-08T04:07:33.825Z,1.90
2022-12-08T04:10:00.389Z,1.90
2022-12-08T04:12:26.919Z,1.90
2022-12-08T04:14:53.435Z,1.90
2022-12-08T04:17:19.936Z,2.00
2022-12-08T04:19:46.457Z,2.00
2022-12-08T04:22:13.026Z,2.00
2022-12-08T04:24:39.623Z,2.00
2022-12-08T04:27:06.211Z,2.10
2022-12-08T04:29:32.745Z,2.10
2022-12-08T04:31:59.336Z,2.20
2022-12-08T04:34:25.920Z,2.10
2022-12-08T04:36:52.526Z,2.30
2022-12-08T04:39:19.100Z,2.10
2022-12-08T04:41:45.802Z,2.20
2022-12-08T04:44:12.313Z,2.20
2022-12-08T04:46:43.207Z,2.20
2022-12-08T04:49:10.286Z,2.20
2022-12-08T04:51:36.807Z,2.20
2022-12-08T04:54:03.344Z,2.20
2022-12-08T04:56:30.558Z,2.20
2022-12-08T04:58:57.065Z,2.20
2022-12-08T05:01:23.614Z,2.20
2022-12-08T05:03:50.177Z,2.20
2022-12-08T05:06:16.915Z,2.20
2022-12-08T05:08:43.498Z,2.20
2022-12-08T05:11:10.851Z,2.30
2022-12-08T05:13:37.505Z,2.30
2022-12-08T05:16:05.354Z,2.30
2022-12-08T05:18:31.907Z,2.30
2022-12-08T05:20:58.908Z,2.30
2022-12-08T05:23:25.679Z,2.30
2022-12-08T05:25:52.248Z,2.40
2022-12-08T05:28:40.768Z,2.40
2022-12-08T05:31:05.544Z,2.40
2022-12-08T05:33:32.073Z,2.40
2022-12-08T05:35:58.568Z,2.40
2022-12-08T05:38:25.100Z,2.40
2022-12-08T05:40:51.743Z,2.40
2022-12-08T05:43:18.285Z,2.40
2022-12-08T05:45:44.984Z,2.40
2022-12-08T05:48:11.668Z,2.50
2022-12-08T05:50:38.223Z,2.40
2022-12-08T05:53:04.880Z,2.40
2022-12-08T05:55:31.369Z,2.50
2022-12-08T05:57:59.218Z,2.50
2022-12-08T06:00:28.467Z,2.50
2022-12-08T06:02:55.115Z,2.50
2022-12-08T06:05:21.735Z,2.50
2022-12-08T06:07:48.316Z,2.50
2022-12-08T06:10:14.881Z,2.50
2022-12-08T06:12:41.508Z,2.50
2022-12-08T06:15:08.327Z,2.50
2022-12-08T06:17:34.917Z,2.50
2022-12-08T06:20:01.960Z,2.60
2022-12-08T06:22:28.904Z,2.50
2022-12-08T06:24:55.470Z,2.60
2022-12-08T06:27:22.101Z,2.60
2022-12-08T06:29:48.621Z,2.60
2022-12-08T06:32:15.301Z,2.60
2022-12-08T06:34:41.936Z,2.50
2022-12-08T06:37:08.466Z,2.60
2022-12-08T06:39:34.975Z,2.60
2022-12-08T06:42:20.383Z,3.20
2022-12-08T06:44:47.191Z,2.60
2022-12-08T06:47:13.862Z,2.60
2022-12-08T06:49:40.414Z,2.60
2022-12-08T06:52:06.935Z,2.60
2022-12-08T06:54:33.476Z,2.60
2022-12-08T06:57:00.076Z,2.60
2022-12-08T06:59:26.660Z,2.60
2022-12-08T07:01:53.261Z,2.60
2022-12-08T07:04:19.855Z,2.60
2022-12-08T07:06:46.373Z,2.60
2022-12-08T07:09:12.959Z,2.60
2022-12-08T07:11:39.491Z,2.60
2022-12-08T07:14:06.084Z,2.70
2022-12-08T07:16:32.682Z,2.70
2022-12-08T07:18:59.540Z,2.70
2022-12-08T07:21:26.163Z,2.70
2022-12-08T07:23:57.375Z,2.70
2022-12-08T07:26:24.406Z,2.70
2022-12-08T07:28:50.950Z,2.70
2022-12-08T07:31:18.983Z,2.70
2022-12-08T07:33:45.654Z,2.50
2022-12-08T07:36:12.545Z,2.70
2022-12-08T07:38:39.467Z,2.70
2022-12-08T07:41:06.012Z,2.70
2022-12-08T07:43:32.633Z,2.80
2022-12-08T07:45:59.839Z,2.80
2022-12-08T07:48:26.412Z,2.80
2022-12-08T07:50:59.378Z,2.80
2022-12-08T07:53:25.897Z,2.80
2022-12-08T07:55:52.389Z,2.80
2022-12-08T07:58:18.962Z,2.90
2022-12-08T08:00:45.541Z,2.80
2022-12-08T08:03:12.198Z,2.80
2022-12-08T08:05:38.807Z,2.90
2022-12-08T08:08:05.722Z,2.80
2022-12-08T08:10:32.442Z,2.90
2022-12-08T08:12:59.517Z,2.90
2022-12-08T08:15:26.515Z,2.80
2022-12-08T08:17:53.327Z,2.90
2022-12-08T08:20:20.820Z,2.90
2022-12-08T08:22:47.726Z,2.90
2022-12-08T08:25:15.068Z,2.90
2022-12-08T08:27:41.879Z,3.00
2022-12-08T08:30:09.668Z,3.00
2022-12-08T08:32:36.624Z,3.10
2022-12-08T08:35:03.784Z,3.10
2022-12-08T08:37:30.479Z,3.20
2022-12-08T08:39:57.039Z,3.10
2022-12-08T08:42:23.582Z,3.10
2022-12-08T08:44:50.178Z,3.10
2022-12-08T08:47:16.674Z,3.10
2022-12-08T08:49:43.244Z,3.10
2022-12-08T08:52:10.179Z,3.10
2022-12-08T08:54:36.777Z,3.10
2022-12-08T08:57:03.363Z,3.10
2022-12-08T08:59:30.078Z,3.20
2022-12-08T09:01:56.678Z,3.20
2022-12-08T09:04:23.425Z,3.20
2022-12-08T09:06:49.995Z,3.30
2022-12-08T09:09:16.624Z,3.30
2022-12-08T09:11:43.314Z,3.40
2022-12-08T09:14:11.208Z,3.40
2022-12-08T09:16:42.191Z,3.40
2022-12-08T09:19:09.157Z,3.50
2022-12-08T09:21:35.724Z,3.50
2022-12-08T09:24:02.317Z,3.50
2022-12-08T09:26:28.836Z,3.60
2022-12-08T09:28:55.867Z,3.60
2022-12-08T09:31:23.034Z,3.70
2022-12-08T09:33:52.837Z,3.70
2022-12-08T09:36:19.933Z,3.80
2022-12-08T09:38:46.717Z,3.80
2022-12-08T09:41:16.067Z,3.80
2022-12-08T09:43:42.532Z,3.90
2022-12-08T09:46:10.667Z,4.00
2022-12-08T09:48:43.202Z,3.70
2022-12-08T09:51:11.259Z,4.00
2022-12-08T09:53:51.882Z,4.10
2022-12-08T09:56:22.414Z,4.10
2022-12-08T09:58:58.175Z,4.10
2022-12-08T10:01:27.496Z,4.20
2022-12-08T10:03:55.893Z,4.20
2022-12-08T10:06:22.432Z,4.20
2022-12-08T10:08:54.901Z,4.30
2022-12-08T10:11:29.439Z,4.30
2022-12-08T10:14:19.026Z,4.20
2022-12-08T10:16:48.356Z,4.30
2022-12-08T10:19:22.318Z,4.40
2022-12-08T10:21:49.275Z,4.40
2022-12-08T10:24:23.883Z,4.40
2022-12-08T10:26:50.425Z,4.40
2022-12-08T10:29:17.227Z,4.50
2022-12-08T10:31:43.813Z,4.60
2022-12-08T10:34:14.897Z,4.70
2022-12-08T10:36:46.221Z,4.80
2022-12-08T10:39:30.886Z,4.90
2022-12-08T10:42:17.102Z,4.80
2022-12-08T10:45:02.422Z,4.90
2022-12-08T10:47:29.733Z,5.00
2022-12-08T10:50:22.503Z,5.10
2022-12-08T10:53:07.617Z,5.20
2022-12-08T10:55:45.188Z,5.30
2022-12-08T10:58:23.166Z,5.50
2022-12-08T11:01:00.556Z,5.50
2022-12-08T11:03:29.364Z,6.00
2022-12-08T11:05:57.352Z,6.60
2022-12-08T11:08:24.292Z,7.00
2022-12-08T11:10:50.869Z,7.50
2022-12-08T11:13:27.397Z,8.30
2022-12-08T11:15:54.948Z,8.80
2022-12-08T11:18:28.901Z,8.80
2022-12-08T11:20:56.691Z,9.00
2022-12-08T11:23:24.933Z,8.90
2022-12-08T11:25:52.620Z,8.90
2022-12-08T11:28:22.127Z,8.80
2022-12-08T11:30:54.276Z,9.00
2022-12-08T11:33:20.842Z,9.10
2022-12-08T11:35:49.854Z,9.00
2022-12-08T11:38:24.290Z,9.00
2022-12-08T11:40:53.022Z,9.10
2022-12-08T11:43:19.644Z,8.80
2022-12-08T11:45:48.851Z,8.50
2022-12-08T11:48:17.502Z,8.20
2022-12-08T11:50:49.394Z,7.90
2022-12-08T11:53:27.869Z,7.70
2022-12-08T11:55:59.043Z,7.60
2022-12-08T11:58:28.022Z,7.50
2022-12-08T12:00:54.654Z,7.40
2022-12-08T12:03:39.221Z,7.10
2022-12-08T12:06:46.603Z,7.00
2022-12-08T12:09:13.282Z,6.80
2022-12-08T12:12:01.745Z,6.80
2022-12-08T12:14:43.923Z,6.70
2022-12-08T12:17:30.717Z,6.60
2022-12-08T12:19:59.982Z,6.50
2022-12-08T12:22:29.591Z,6.40
2022-12-08T12:24:56.153Z,6.30
2022-12-08T12:27:43.617Z,6.20
2022-12-08T12:30:20.097Z,6.10
2022-12-08T12:32:55.437Z,6.10
2022-12-08T12:35:28.807Z,6.00
2022-12-08T12:38:05.087Z,5.90
2022-12-08T12:40:39.491Z,5.90
2022-12-08T12:43:05.984Z,5.80
2022-12-08T12:45:34.062Z,5.70
2022-12-08T12:48:00.556Z,5.70
2022-12-08T12:50:48.102Z,5.70
2022-12-08T12:53:18.009Z,5.70
2022-12-08T12:55:50.634Z,5.70
2022-12-08T12:58:29.542Z,5.70
2022-12-08T13:01:08.184Z,5.70
2022-12-08T13:03:34.945Z,5.70
2022-12-08T13:06:01.713Z,5.70
2022-12-08T13:08:28.321Z,5.70
2022-12-08T13:11:01.071Z,5.70
2022-12-08T13:13:28.299Z,5.80
2022-12-08T13:15:56.265Z,5.80
2022-12-08T13:18:31.947Z,5.80
2022-12-08T13:21:10.558Z,5.80
2022-12-08T13:23:37.058Z,5.80
2022-12-08T13:26:12.822Z,5.70
2022-12-08T13:28:58.074Z,5.70
2022-12-08T13:31:49.856Z,5.60
2022-12-08T13:34:36.267Z,5.60
2022-12-08T13:37:12.263Z,5.60
2022-12-08T13:39:38.756Z,5.60
2022-12-08T13:42:11.530Z,5.50
2022-12-08T13:47:34.746Z,5.40
2022-12-08T13:58:33.589Z,5.30
2022-12-08T14:01:20.122Z,5.30
2022-12-08T14:04:12.892Z,5.40
2022-12-08T14:06:36.586Z,5.30
2022-12-08T14:09:10.820Z,5.30
2022-12-08T14:11:39.583Z,5.20
2022-12-08T14:14:08.368Z,5.20
2022-12-08T14:16:39.648Z,5.20
2022-12-08T14:19:19.334Z,5.10
2022-12-08T14:21:46.883Z,5.10
2022-12-08T14:24:13.429Z,5.10
2022-12-08T14:26:40.041Z,5.00
2022-12-08T14:29:08.240Z,5.00
2022-12-08T14:31:35.017Z,5.00
2022-12-08T14:34:01.602Z,5.00
2022-12-08T14:36:28.973Z,4.90
2022-12-08T14:38:55.795Z,4.90
2022-12-08T14:41:27.319Z,4.90
2022-12-08T14:44:01.149Z,4.80
2022-12-08T14:46:28.343Z,4.80
2022-12-08T14:48:56.610Z,4.80
2022-12-08T14:51:31.414Z,4.80
2022-12-08T14:54:01.992Z,4.80
2022-12-08T14:56:33.932Z,4.70
2022-12-08T14:59:09.419Z,4.70
2022-12-08T15:01:36.854Z,4.70
2022-12-08T15:04:12.752Z,4.60
2022-12-08T15:06:57.530Z,4.70
2022-12-08T15:09:29.831Z,4.70
2022-12-08T15:12:00.408Z,4.70
2022-12-08T15:14:37.642Z,4.70
2022-12-08T15:17:24.139Z,4.60
2022-12-08T15:19:57.093Z,4.70
2022-12-08T15:22:24.143Z,4.60
2022-12-08T15:24:50.646Z,4.60
2022-12-08T15:27:21.597Z,4.60
2022-12-08T15:29:48.518Z,4.50
2022-12-08T15:32:24.272Z,4.00
2022-12-08T15:34:50.902Z,4.50
2022-12-08T15:37:20.266Z,4.50
2022-12-08T15:39:46.809Z,4.60
2022-12-08T15:42:13.568Z,4.60
2022-12-08T15:44:40.470Z,4.60
2022-12-08T15:47:11.708Z,4.60
2022-12-08T15:49:38.833Z,4.50
2022-12-08T15:52:11.751Z,4.40
2022-12-08T15:54:38.659Z,4.40
2022-12-08T15:57:22.258Z,4.50
2022-12-08T15:59:52.292Z,4.50
2022-12-08T16:02:22.517Z,4.50
2022-12-08T16:07:38.053Z,4.50
2022-12-08T16:10:06.014Z,4.50
2022-12-08T16:15:55.175Z,4.50
2022-12-08T16:18:27.375Z,4.60
2022-12-08T16:21:22.803Z,4.40
2022-12-08T16:23:44.043Z,4.40
2022-12-08T16:27:01.513Z,4.40
2022-12-08T16:29:09.792Z,4.30
2022-12-08T16:31:36.416Z,4.20
2022-12-08T16:34:03.113Z,4.40
2022-12-08T16:36:29.683Z,4.50
2022-12-08T16:38:56.335Z,4.40
2022-12-08T16:41:41.631Z,4.30
2022-12-08T16:44:08.371Z,4.40
2022-12-08T16:46:35.895Z,4.40
2022-12-08T16:49:02.660Z,4.40
2022-12-08T16:51:29.192Z,4.50
2022-12-08T16:53:56.772Z,4.50
2022-12-08T16:56:30.417Z,4.40
2022-12-08T16:58:59.084Z,4.40
2022-12-08T17:01:25.814Z,4.40
2022-12-08T17:04:22.642Z,4.50
2022-12-08T17:06:39.136Z,4.50
2022-12-08T17:09:05.700Z,4.50
2022-12-08T17:11:36.283Z,4.40
2022-12-08T17:14:05.825Z,4.40
2022-12-08T17:16:32.445Z,4.40
2022-12-08T17:18:59.011Z,4.40
2022-12-08T17:21:25.574Z,4.30
2022-12-08T17:23:52.139Z,4.30
2022-12-08T17:26:18.767Z,4.40
2022-12-08T17:29:00.040Z,4.30
2022-12-08T17:31:30.337Z,4.20
2022-12-08T17:34:00.949Z,4.30
2022-12-08T17:36:27.809Z,4.30
2022-12-08T17:38:54.760Z,4.40
2022-12-08T17:41:21.327Z,4.30
2022-12-08T17:43:47.828Z,4.40
2022-12-08T17:46:21.420Z,4.30
2022-12-08T17:48:48.356Z,4.20
2022-12-08T17:51:15.486Z,4.10
2022-12-08T17:53:42.276Z,4.30
2022-12-08T17:56:19.970Z,4.20
2022-12-08T17:58:52.641Z,4.30
2022-12-08T18:01:20.811Z,4.20
2022-12-08T18:03:47.396Z,4.30
2022-12-08T18:06:14.046Z,4.30
2022-12-08T18:08:40.616Z,4.20
2022-12-08T18:11:12.424Z,4.20
2022-12-08T18:13:39.058Z,4.20
2022-12-08T18:16:05.632Z,4.20
2022-12-08T18:18:32.188Z,4.20
2022-12-08T18:20:58.680Z,4.20
2022-12-08T18:23:25.202Z,4.20
2022-12-08T18:25:51.742Z,4.20
2022-12-08T18:28:18.326Z,4.20
2022-12-08T18:30:44.911Z,4.10
2022-12-08T18:33:11.488Z,4.10
2022-12-08T18:35:41.275Z,4.20
2022-12-08T18:38:07.882Z,4.20
2022-12-08T18:40:34.483Z,4.20
2022-12-08T18:43:01.029Z,4.20
2022-12-08T18:45:27.664Z,4.20
2022-12-08T18:47:54.693Z,4.20
2022-12-08T18:50:21.325Z,4.20
2022-12-08T18:52:47.987Z,4.10
2022-12-08T18:55:14.706Z,4.10
2022-12-08T18:57:43.030Z,4.10
2022-12-08T19:00:14.086Z,4.10
2022-12-08T19:02:41.045Z,4.10
2022-12-08T19:05:08.277Z,4.10
2022-12-08T19:07:35.295Z,4.10
2022-12-08T19:10:01.905Z,4.10
2022-12-08T19:12:28.521Z,4.10
2022-12-08T19:14:55.079Z,4.00
2022-12-08T19:17:22.018Z,4.00
2022-12-08T19:19:48.550Z,4.00
2022-12-08T19:22:15.131Z,4.00
2022-12-08T19:24:41.737Z,4.00
2022-12-08T19:27:08.330Z,3.90
2022-12-08T19:29:34.948Z,3.90
2022-12-08T19:32:01.528Z,3.70
2022-12-08T19:34:28.071Z,3.70
2022-12-08T19:36:54.639Z,3.50
2022-12-08T19:39:40.876Z,3.50
2022-12-08T19:42:33.683Z,3.50
2022-12-08T19:45:12.251Z,3.30
2022-12-08T19:47:39.689Z,3.40
2022-12-08T19:50:25.638Z,3.20
2022-12-08T19:52:52.502Z,3.30
2022-12-08T19:55:19.132Z,3.30
2022-12-08T19:57:45.662Z,3.30
2022-12-08T20:00:13.092Z,3.30
2022-12-08T20:02:39.731Z,3.30
2022-12-08T20:05:07.322Z,3.30
2022-12-08T20:07:34.207Z,3.30
2022-12-08T20:10:00.834Z,3.20
2022-12-08T20:12:27.318Z,3.20
2022-12-08T20:14:53.911Z,3.20
2022-12-08T20:17:20.488Z,3.20
2022-12-08T20:19:47.030Z,3.20
2022-12-08T20:22:13.548Z,3.20
2022-12-08T20:24:40.136Z,3.20
2022-12-08T20:27:06.715Z,3.20
2022-12-08T20:29:33.439Z,3.20
2022-12-08T20:32:00.137Z,3.10
2022-12-08T20:34:26.765Z,3.10
2022-12-08T20:36:53.418Z,3.30
2022-12-08T20:39:20.015Z,3.10
2022-12-08T20:41:46.616Z,3.10
2022-12-08T20:44:13.169Z,3.10
2022-12-08T20:46:41.843Z,3.10
2022-12-08T20:49:11.643Z,3.10
2022-12-08T20:51:38.334Z,3.20
2022-12-08T20:54:05.000Z,3.20
2022-12-08T20:56:32.438Z,3.10
2022-12-08T20:58:59.221Z,3.10
2022-12-08T21:01:26.045Z,3.10
2022-12-08T21:03:52.963Z,3.10
2022-12-08T21:06:24.465Z,3.00
2022-12-08T21:08:51.736Z,3.10
2022-12-08T21:11:18.911Z,3.30
2022-12-08T21:13:46.817Z,3.10
2022-12-08T21:16:14.422Z,3.10
2022-12-08T21:18:41.263Z,3.10
2022-12-08T21:21:09.421Z,3.20
2022-12-08T21:23:36.299Z,3.10
2022-12-08T21:26:03.545Z,3.10
2022-12-08T21:28:30.147Z,3.10
2022-12-08T21:30:56.889Z,3.10
2022-12-08T21:33:23.746Z,3.10
2022-12-08T21:35:50.774Z,3.10
2022-12-08T21:38:17.441Z,3.10
2022-12-08T21:40:44.233Z,3.10
2022-12-08T21:43:11.853Z,3.10
2022-12-08T21:45:38.396Z,3.00
2022-12-08T21:48:10.797Z,3.40
2022-12-08T21:50:38.323Z,3.00
2022-12-08T21:53:04.973Z,2.90
2022-12-08T21:55:31.884Z,2.90
2022-12-08T21:58:00.770Z,2.80
2022-12-08T22:00:28.038Z,3.00
2022-12-08T22:02:55.096Z,2.80
2022-12-08T22:05:22.097Z,2.80
2022-12-08T22:07:48.911Z,2.90
2022-12-08T22:10:15.755Z,2.70
2022-12-08T22:12:42.510Z,2.70
2022-12-08T22:15:10.185Z,2.60
2022-12-08T22:17:37.837Z,2.70
2022-12-08T22:20:06.264Z,2.70
2022-12-08T22:22:34.917Z,2.70
2022-12-08T22:25:02.359Z,2.80
2022-12-08T22:27:29.384Z,2.70
2022-12-08T22:29:56.102Z,2.60
2022-12-08T22:32:22.972Z,2.60
2022-12-08T22:34:49.638Z,2.60
2022-12-08T22:37:16.282Z,2.60
2022-12-08T22:39:42.960Z,2.50
2022-12-08T22:42:09.944Z,2.60
2022-12-08T22:44:36.611Z,2.60
2022-12-08T22:47:03.476Z,2.50
2022-12-08T22:49:30.253Z,2.50
2022-12-08T22:51:56.896Z,2.50
2022-12-08T22:54:23.705Z,2.40
2022-12-08T22:56:50.334Z,2.40
2022-12-08T22:59:16.965Z,2.40
2022-12-08T23:01:43.709Z,2.40
2022-12-08T23:04:17.206Z,2.40
2022-12-08T23:06:44.363Z,2.40
2022-12-08T23:09:11.255Z,2.40
2022-12-08T23:11:38.099Z,2.40
2022-12-08T23:14:04.794Z,2.40
2022-12-08T23:16:31.902Z,2.30
2022-12-08T23:18:58.602Z,2.20
2022-12-08T23:21:25.373Z,2.20
2022-12-08T23:23:51.940Z,2.20
2022-12-08T23:26:20.291Z,2.20
2022-12-08T23:28:47.046Z,2.20
2022-12-08T23:31:13.970Z,2.20
2022-12-08T23:33:40.656Z,2.10
2022-12-08T23:36:07.354Z,2.10
2022-12-08T23:38:34.043Z,2.10
2022-12-08T23:41:05.481Z,2.10
2022-12-08T23:43:32.229Z,2.20
2022-12-08T23:45:58.937Z,2.10
2022-12-08T23:48:25.703Z,2.10
2022-12-08T23:50:52.259Z,2.00
2022-12-08T23:53:18.856Z,1.90
2022-12-08T23:55:45.599Z,1.90
2022-12-08T23:58:12.158Z,1.80
